Dom Pedrito, Brazil
Current Conditions -  °F | °C
As of 11:35 PM on Sunday 19 Oct 2014 (Local Time) from SBSM Reporting Station
Scattered Clouds Scattered Clouds  
Wind Chill: 66°   Ceiling: Unl
Heat Index: 66°   Visibility: 6mi
Dew Point: 59°   Wind: 3mph
Humidity: 78%   Direction: 150°SSE
Pressure: 30.03"   Gusts: NA
Location:  30.98°S, 54.67°W
Report Text: SBSM 200235Z 15003KT 9999 FEW030 SCT050 19/15 Q1017
Loading
Personal Weather Stations






























Interactive Weather Map
Tropical Storm Tracking
New forecast layout! Learn more

10-Day Weather Forecast

Advertisements
Track Severe Weather on mobile